createdAt,value
2018-05-15T00:01:05.350Z,79.52
2018-05-15T00:04:28.625Z,80.34
2018-05-15T00:07:51.914Z,78.79
2018-05-15T00:11:15.206Z,78.62
2018-05-15T00:14:38.510Z,78.68
2018-05-15T00:18:01.851Z,80.41
2018-05-15T00:21:25.137Z,81.00
2018-05-15T00:24:48.436Z,79.70
2018-05-15T00:28:11.772Z,80.62
2018-05-15T00:31:35.060Z,79.97
2018-05-15T00:34:59.110Z,80.95
2018-05-15T00:38:23.176Z,80.52
2018-05-15T00:41:46.516Z,80.76
2018-05-15T00:45:09.802Z,81.07
2018-05-15T00:48:33.146Z,80.22
2018-05-15T00:51:57.254Z,80.59
2018-05-15T00:55:45.438Z,80.12
2018-05-15T00:59:09.566Z,79.03
2018-05-15T01:02:32.898Z,79.40
2018-05-15T01:05:56.190Z,79.14
2018-05-15T01:09:19.469Z,80.06
2018-05-15T01:12:42.832Z,78.74
2018-05-15T01:16:06.187Z,78.83
2018-05-15T01:19:29.543Z,79.75
2018-05-15T01:22:52.834Z,79.65
2018-05-15T01:26:16.217Z,79.78
2018-05-15T01:29:39.580Z,79.44
2018-05-15T01:33:03.642Z,78.99
2018-05-15T01:36:26.972Z,78.13
2018-05-15T01:39:50.257Z,78.25
2018-05-15T01:43:13.544Z,78.81
2018-05-15T01:46:36.852Z,78.79
2018-05-15T01:50:00.193Z,79.25
2018-05-15T01:53:23.470Z,78.46
2018-05-15T01:56:47.550Z,78.97
2018-05-15T02:00:10.854Z,79.17
2018-05-15T02:03:34.189Z,78.32
2018-05-15T02:06:57.469Z,78.85
2018-05-15T02:10:20.759Z,79.07
2018-05-15T02:13:44.040Z,78.67
2018-05-15T02:17:07.333Z,77.71
2018-05-15T02:20:30.623Z,78.12
2018-05-15T02:23:53.915Z,78.33
2018-05-15T02:27:17.267Z,78.18
2018-05-15T02:30:41.342Z,78.06
2018-05-15T02:34:05.465Z,78.22
2018-05-15T02:37:28.787Z,79.12
2018-05-15T02:40:52.079Z,78.75
2018-05-15T02:44:15.338Z,77.82
2018-05-15T02:47:38.646Z,77.68
2018-05-15T02:51:01.979Z,78.25
2018-05-15T02:54:25.285Z,79.09
2018-05-15T02:57:48.569Z,77.28
2018-05-15T03:01:11.868Z,77.37
2018-05-15T03:04:35.232Z,77.30
2018-05-15T03:07:58.563Z,77.14
2018-05-15T03:11:21.845Z,78.23
2018-05-15T03:14:45.137Z,77.42
2018-05-15T03:18:08.481Z,77.05
2018-05-15T03:21:32.568Z,76.90
2018-05-15T03:24:55.842Z,77.21
2018-05-15T03:28:19.149Z,77.79
2018-05-15T03:31:42.415Z,78.03
2018-05-15T03:35:05.707Z,78.36
2018-05-15T03:38:29.002Z,78.44
2018-05-15T03:41:52.717Z,78.63
2018-05-15T03:45:16.001Z,79.05
2018-05-15T03:48:39.414Z,78.85
2018-05-15T03:52:03.506Z,78.16
2018-05-15T03:55:27.556Z,78.93
2018-05-15T03:58:50.906Z,79.46
2018-05-15T04:02:32.004Z,79.25
2018-05-15T04:06:13.277Z,77.92
2018-05-15T04:09:36.591Z,78.51
2018-05-15T04:12:59.930Z,79.43
2018-05-15T04:16:24.092Z,79.14
2018-05-15T04:19:47.369Z,78.74
2018-05-15T04:23:10.663Z,78.97
2018-05-15T04:26:34.097Z,78.99
2018-05-15T04:29:57.389Z,78.92
2018-05-15T04:33:20.731Z,79.14
2018-05-15T04:36:44.015Z,78.01
2018-05-15T04:40:07.311Z,79.08
2018-05-15T04:43:30.727Z,78.01
2018-05-15T04:46:55.553Z,78.06
2018-05-15T04:50:19.203Z,77.19
2018-05-15T04:53:42.549Z,78.63
2018-05-15T04:57:05.825Z,78.99
2018-05-15T05:00:29.903Z,78.58
2018-05-15T05:03:54.026Z,76.90
2018-05-15T05:07:17.389Z,76.76
2018-05-15T05:10:40.729Z,77.24
2018-05-15T05:14:04.129Z,77.17
2018-05-15T05:17:28.249Z,76.74
2018-05-15T05:20:51.577Z,76.00
2018-05-15T05:24:14.903Z,75.92
2018-05-15T05:27:38.256Z,76.82
2018-05-15T05:31:01.585Z,74.63
2018-05-15T05:34:24.867Z,75.10
2018-05-15T05:37:48.225Z,74.17
2018-05-15T05:41:11.528Z,74.44
2018-05-15T05:44:34.884Z,75.14
2018-05-15T05:47:58.239Z,75.07
2018-05-15T05:51:21.564Z,73.43
2018-05-15T05:54:44.849Z,73.96
2018-05-15T05:58:08.132Z,74.37
2018-05-15T06:01:32.180Z,74.46
2018-05-15T06:04:55.447Z,74.10
2018-05-15T06:08:18.709Z,73.80
2018-05-15T06:11:42.887Z,72.64
2018-05-15T06:15:06.172Z,74.44
2018-05-15T06:18:29.434Z,74.30
2018-05-15T06:21:52.721Z,73.54
2018-05-15T06:25:16.763Z,74.85
2018-05-15T06:28:40.050Z,74.01
2018-05-15T06:32:03.314Z,74.83
2018-05-15T06:35:26.588Z,74.62
2018-05-15T06:38:49.894Z,75.05
2018-05-15T06:42:13.183Z,73.70
2018-05-15T06:45:36.445Z,74.02
2018-05-15T06:48:59.719Z,73.71
2018-05-15T06:52:22.988Z,74.29
2018-05-15T06:55:47.012Z,74.10
2018-05-15T06:59:10.312Z,74.78
2018-05-15T07:02:33.639Z,74.21
2018-05-15T07:05:57.682Z,74.06
2018-05-15T07:09:20.970Z,73.54
2018-05-15T07:12:44.403Z,73.75
2018-05-15T07:16:07.666Z,72.52
2018-05-15T07:19:30.991Z,75.45
2018-05-15T07:22:54.250Z,73.99
2018-05-15T07:26:17.516Z,73.93
2018-05-15T07:29:40.798Z,72.57
2018-05-15T07:33:04.911Z,72.99
2018-05-15T07:36:28.119Z,72.81
2018-05-15T07:39:51.408Z,72.31
2018-05-15T07:43:14.703Z,73.70
2018-05-15T07:46:37.984Z,73.87
2018-05-15T07:50:01.313Z,74.48
2018-05-15T07:53:25.489Z,74.40
2018-05-15T07:56:48.774Z,74.83
2018-05-15T08:00:20.002Z,74.91
2018-05-15T08:03:43.282Z,74.39
2018-05-15T08:07:06.569Z,74.84
2018-05-15T08:10:29.860Z,75.95
2018-05-15T08:13:53.151Z,74.23
2018-05-15T08:17:17.949Z,73.62
2018-05-15T08:20:41.224Z,73.68
2018-05-15T08:24:04.483Z,75.33
2018-05-15T08:27:28.535Z,75.04
2018-05-15T08:30:51.852Z,74.93
2018-05-15T08:34:15.089Z,73.68
2018-05-15T08:37:38.468Z,73.12
2018-05-15T08:41:01.717Z,72.85
2018-05-15T08:44:25.011Z,72.94
2018-05-15T08:47:48.274Z,71.67
2018-05-15T08:51:12.338Z,72.37
2018-05-15T08:54:36.376Z,72.28
2018-05-15T08:57:59.666Z,71.46
2018-05-15T09:01:22.953Z,69.17
2018-05-15T09:04:46.248Z,67.58
2018-05-15T09:08:09.663Z,68.39
2018-05-15T09:11:32.943Z,68.38
2018-05-15T09:14:56.228Z,68.67
2018-05-15T09:18:19.506Z,69.75
2018-05-15T09:21:42.813Z,69.12
2018-05-15T09:25:06.110Z,70.04
2018-05-15T09:28:29.374Z,69.74
2018-05-15T09:31:52.690Z,70.04
2018-05-15T09:35:16.732Z,68.38
2018-05-15T09:38:40.019Z,67.86
2018-05-15T09:42:03.303Z,68.38
2018-05-15T09:45:26.574Z,68.87
2018-05-15T09:48:49.881Z,68.75
2018-05-15T09:52:13.162Z,68.61
2018-05-15T09:55:36.416Z,69.72
2018-05-15T09:59:00.502Z,70.70
2018-05-15T10:02:24.540Z,71.00
2018-05-15T10:05:47.826Z,71.31
2018-05-15T10:09:11.113Z,71.50
2018-05-15T10:12:34.437Z,71.12
2018-05-15T10:15:58.480Z,71.57
2018-05-15T10:19:21.755Z,72.42
2018-05-15T10:22:45.037Z,73.78
2018-05-15T10:26:08.318Z,74.91
2018-05-15T10:29:32.358Z,74.55
2018-05-15T10:32:55.648Z,74.02
2018-05-15T10:36:18.936Z,75.28
2018-05-15T10:39:42.210Z,74.82
2018-05-15T10:43:05.497Z,74.96
2018-05-15T10:46:28.776Z,76.12
2018-05-15T10:49:52.051Z,75.58
2018-05-15T10:53:15.310Z,75.43
2018-05-15T10:56:38.809Z,74.81
2018-05-15T11:00:02.879Z,75.15
2018-05-15T11:03:26.924Z,76.52
2018-05-15T11:06:51.168Z,77.42
2018-05-15T11:10:14.466Z,78.15
2018-05-15T11:13:37.729Z,78.35
2018-05-15T11:17:01.008Z,81.41
2018-05-15T11:20:41.788Z,83.87
2018-05-15T11:28:08.562Z,84.25
2018-05-15T11:31:32.646Z,83.86
2018-05-15T11:34:56.688Z,82.78
2018-05-15T11:38:19.972Z,83.63
2018-05-15T11:41:43.310Z,82.21
2018-05-15T11:45:06.559Z,82.81
2018-05-15T11:48:30.442Z,81.93
2018-05-15T11:51:53.826Z,80.88
2018-05-15T11:55:16.496Z,77.78
2018-05-15T11:58:40.561Z,78.44
2018-05-15T12:02:03.841Z,76.61
2018-05-15T12:05:27.108Z,76.22
2018-05-15T12:08:50.389Z,75.34
2018-05-15T12:12:13.658Z,72.09
2018-05-15T12:15:37.731Z,70.04
2018-05-15T12:19:01.780Z,69.31
2018-05-15T12:22:25.214Z,73.01
2018-05-15T12:25:48.494Z,73.31
2018-05-15T12:29:11.770Z,71.06
2018-05-15T12:32:35.076Z,74.08
2018-05-15T12:35:58.390Z,73.52
2018-05-15T12:39:22.429Z,71.94
2018-05-15T12:42:45.700Z,71.50
2018-05-15T12:46:09.028Z,69.51
2018-05-15T12:49:33.062Z,68.17
2018-05-15T12:52:56.332Z,63.68
2018-05-15T12:56:20.378Z,63.23
2018-05-15T12:59:43.644Z,63.48
2018-05-15T13:03:07.696Z,64.88
2018-05-15T13:06:30.996Z,64.73
2018-05-15T13:09:55.774Z,66.01
2018-05-15T13:13:19.057Z,66.96
2018-05-15T13:16:42.335Z,66.68
2018-05-15T13:20:05.619Z,67.83
2018-05-15T13:23:28.892Z,65.93
2018-05-15T13:26:52.166Z,68.23
2018-05-15T13:30:16.207Z,69.49
2018-05-15T13:33:39.472Z,72.80
2018-05-15T13:37:02.742Z,73.36
2018-05-15T13:40:26.779Z,74.46
2018-05-15T13:43:50.044Z,74.38
2018-05-15T13:47:13.314Z,73.83
2018-05-15T13:50:38.329Z,74.32
2018-05-15T13:54:01.608Z,74.61
2018-05-15T13:57:24.889Z,76.59
2018-05-15T14:00:48.799Z,78.06
2018-05-15T14:04:12.859Z,78.29
2018-05-15T14:07:36.925Z,77.55
2018-05-15T14:11:00.207Z,79.10
2018-05-15T14:14:23.485Z,81.29
2018-05-15T14:17:46.760Z,83.12
2018-05-15T14:21:10.040Z,84.26
2018-05-15T14:24:33.300Z,82.17
2018-05-15T14:27:57.335Z,81.15
2018-05-15T14:31:21.409Z,78.08
2018-05-15T14:34:46.164Z,74.49
2018-05-15T14:38:09.435Z,75.60
2018-05-15T14:48:59.898Z,72.97
2018-05-15T14:52:23.177Z,76.84
2018-05-15T14:55:46.465Z,77.20
2018-05-15T14:59:09.769Z,76.88
2018-05-15T15:02:33.878Z,77.57
2018-05-15T15:05:57.165Z,75.32
2018-05-15T15:09:20.503Z,75.29
2018-05-15T15:12:43.775Z,75.35
2018-05-15T15:16:07.851Z,75.88
2018-05-15T15:19:32.629Z,74.03
2018-05-15T15:22:55.916Z,71.52
2018-05-15T15:26:19.257Z,74.85
2018-05-15T15:29:42.535Z,77.50
2018-05-15T15:33:05.846Z,78.32
2018-05-15T15:36:29.195Z,79.56
2018-05-15T15:39:52.569Z,79.56
2018-05-15T15:43:15.899Z,78.65
2018-05-15T15:46:39.204Z,79.76
2018-05-15T15:50:02.501Z,78.11
2018-05-15T15:53:25.778Z,77.55
2018-05-15T15:56:49.068Z,77.78
2018-05-15T16:00:12.337Z,77.90
2018-05-15T16:03:35.690Z,77.13
2018-05-15T16:06:59.083Z,75.74
2018-05-15T16:10:23.159Z,74.72
2018-05-15T16:13:46.480Z,73.25
2018-05-15T16:17:09.885Z,68.06
2018-05-15T16:20:33.914Z,65.51
2018-05-15T16:23:57.210Z,61.58
2018-05-15T16:27:20.497Z,61.89
2018-05-15T16:30:43.809Z,59.83
2018-05-15T16:34:07.985Z,59.06
2018-05-15T16:37:32.140Z,61.91
2018-05-15T16:40:55.471Z,63.49
2018-05-15T16:44:18.927Z,62.31
2018-05-15T16:47:43.054Z,60.25
2018-05-15T16:51:06.423Z,61.91
2018-05-15T16:54:30.463Z,58.75
2018-05-15T16:57:53.773Z,58.05
2018-05-15T17:01:17.117Z,57.12
2018-05-15T17:04:40.447Z,55.21
2018-05-15T17:08:04.730Z,54.91
2018-05-15T17:11:28.007Z,55.72
2018-05-15T17:14:51.385Z,54.77
2018-05-15T17:18:14.634Z,54.53
2018-05-15T17:21:37.907Z,54.77
2018-05-15T17:25:01.237Z,57.35
2018-05-15T17:28:25.353Z,59.21
2018-05-15T17:31:48.755Z,61.26
2018-05-15T17:35:12.902Z,63.95
2018-05-15T17:38:36.243Z,63.32
2018-05-15T17:41:59.583Z,65.10
2018-05-15T17:45:22.935Z,66.28
2018-05-15T17:48:46.242Z,67.69
2018-05-15T17:52:09.592Z,69.89
2018-05-15T17:55:32.981Z,71.13
2018-05-15T17:58:57.092Z,73.32
2018-05-15T18:02:20.414Z,75.73
2018-05-15T18:05:44.493Z,77.39
2018-05-15T18:09:08.747Z,78.46
2018-05-15T18:12:32.062Z,79.33
2018-05-15T18:15:55.407Z,79.02
2018-05-15T18:19:20.058Z,79.73
2018-05-15T18:22:43.428Z,79.37
2018-05-15T18:26:06.821Z,80.19
2018-05-15T18:29:30.968Z,79.94
2018-05-15T18:32:55.192Z,81.39
2018-05-15T18:36:18.498Z,81.44
2018-05-15T18:44:13.244Z,80.94
2018-05-15T18:47:36.617Z,80.51
2018-05-15T18:51:00.869Z,80.84
2018-05-15T18:54:24.970Z,81.06
2018-05-15T18:57:48.319Z,81.38
2018-05-15T19:01:11.756Z,80.92
2018-05-15T19:04:35.144Z,81.02
2018-05-15T19:07:59.226Z,81.61
2018-05-15T19:11:22.540Z,81.83
2018-05-15T19:14:45.841Z,80.97
2018-05-15T19:18:09.197Z,80.86
2018-05-15T19:21:32.694Z,80.57
2018-05-15T19:24:56.027Z,79.34
2018-05-15T19:28:20.139Z,79.26
2018-05-15T19:31:43.417Z,80.64
2018-05-15T19:35:07.518Z,80.29
2018-05-15T19:38:31.009Z,79.67
2018-05-15T19:41:54.300Z,79.97
2018-05-15T19:45:17.671Z,80.76
2018-05-15T19:48:41.011Z,83.15
2018-05-15T19:52:04.378Z,82.37
2018-05-15T19:55:27.731Z,82.30
2018-05-15T19:58:51.090Z,82.44
2018-05-15T20:02:14.440Z,82.64
2018-05-15T20:05:37.811Z,84.08
2018-05-15T20:09:01.377Z,84.57
2018-05-15T20:12:25.458Z,84.60
2018-05-15T20:15:48.826Z,83.94
2018-05-15T20:19:12.179Z,84.59
2018-05-15T20:22:35.544Z,84.59
2018-05-15T20:25:58.877Z,84.99
2018-05-15T20:29:22.314Z,85.15
2018-05-15T20:32:45.651Z,84.92
2018-05-15T20:36:08.955Z,84.72
2018-05-15T20:39:32.303Z,82.62
2018-05-15T20:42:55.617Z,84.39
2018-05-15T20:46:18.963Z,83.11
2018-05-15T20:49:42.318Z,85.50
2018-05-15T20:53:05.657Z,84.70
2018-05-15T20:56:28.951Z,85.53
2018-05-15T20:59:52.301Z,86.31
2018-05-15T21:03:15.612Z,84.74
2018-05-15T21:06:39.045Z,82.99
2018-05-15T21:10:02.517Z,84.19
2018-05-15T21:13:25.807Z,83.45
2018-05-15T21:16:49.169Z,83.10
2018-05-15T21:20:12.509Z,83.56
2018-05-15T21:23:35.946Z,83.83
2018-05-15T21:26:59.230Z,83.73
2018-05-15T21:30:22.522Z,83.83
2018-05-15T21:33:45.865Z,82.57
2018-05-15T21:37:09.246Z,81.83
2018-05-15T21:40:32.590Z,81.69
2018-05-15T21:43:55.907Z,80.70
2018-05-15T21:47:19.233Z,82.01
2018-05-15T21:50:42.602Z,82.61
2018-05-15T21:54:05.939Z,81.31
2018-05-15T21:57:29.227Z,83.02
2018-05-15T22:00:52.965Z,84.72
2018-05-15T22:04:16.306Z,85.20
2018-05-15T22:11:30.215Z,86.39
2018-05-15T22:15:12.539Z,85.56
2018-05-15T22:18:53.872Z,85.16
2018-05-15T22:22:16.439Z,85.66
2018-05-15T22:25:39.801Z,85.57
2018-05-15T22:29:03.145Z,85.24
2018-05-15T22:32:26.496Z,85.22
2018-05-15T22:35:49.787Z,83.21
2018-05-15T22:39:13.128Z,84.29
2018-05-15T22:42:36.495Z,85.23
2018-05-15T22:45:59.800Z,84.74
2018-05-15T22:49:23.156Z,85.60
2018-05-15T22:52:46.501Z,84.92
2018-05-15T22:56:09.859Z,83.40
2018-05-15T22:59:33.204Z,84.06
2018-05-15T23:02:56.508Z,85.02
2018-05-15T23:06:19.934Z,85.52
2018-05-15T23:09:44.018Z,86.01
2018-05-15T23:13:07.418Z,86.02
2018-05-15T23:16:30.766Z,85.90
2018-05-15T23:19:54.075Z,85.42
2018-05-15T23:23:17.359Z,84.36
2018-05-15T23:26:40.677Z,84.46
2018-05-15T23:30:04.870Z,84.80
2018-05-15T23:33:28.164Z,85.00
2018-05-15T23:36:51.626Z,84.78
2018-05-15T23:40:16.511Z,85.17
2018-05-15T23:43:40.546Z,84.61
2018-05-15T23:47:04.654Z,84.26
2018-05-15T23:50:28.072Z,84.41
2018-05-15T23:53:51.354Z,83.95
2018-05-15T23:57:14.708Z,83.91
